Safi-Abad Dezful, Iran

9:17 PM IRST on February 10, 2016 (GMT +0330)
Dezful Air Base | | Change Station
CLOSE
Current Station
Airport
Location: Dezful (iran-afb),
Elevation: 472 ft
Nearby Weather Stations

Elev 472 ft 32.43 °N, 48.40 °E | Updated 47 minutes ago

Clear
Clear
50 °F
Feels Like 50 °F
N
0
Wind Variable Wind from North

Today
High -- | Low -- °F
--% Chance of Precip.
Yesterday
High -- | Low -- °F
Precip. -- in
Pressure 30.04 in
Visibility -9999.0 miles
Clouds
Dew Point 43 °F
Humidity 76%
Rainfall 0.00 in
Snow Depth Not available.
7:04 AM 5:57 PM
Waxing Crescent, 6% visible
METAR OIAD 101700Z 00000KT CAVOK 10/06 Q1017 A3005 FEW180
Pressure 30.04 in
Visibility -9999.0 miles
Clouds
Dew Point 43 °F
Humidity 76%
Rainfall 0.00 in
Snow Depth Not available.
7:04 AM 5:57 PM
Waxing Crescent, 6% visible
METAR OIAD 101700Z 00000KT CAVOK 10/06 Q1017 A3005 FEW180

10-Day Weather Forecast

No radar image for this location.
×

Almanac

Astronomy

Feb. 10, 2016 Rise Set
Actual Time
Civil Twilight
Nautical Twilight
Astronomical Twilight
Moon
Length of Visible Light
Length of Day
Tomorrow will be .
, % of the Moon is Illuminated

Today's Extremes

Country Highs Country Lows

Community

WunderPhotos

Upload Photos

1,891,899 photos uploaded!

WunderBlog® & News

Nearby

Air Quality

  Air Quality AQ Index Pollutant
Not available.

Snow Depth

Station Depth Elevation

Earthquake Activity

City Distance Mag. Time & Date
Minimum magnitude displayed is 2.5.

Coastal Water Temperatures

Place Temperature

Stations

Nearby Weather Stations

Station Location Temp. Windchill Dew Point Humidity Wind Precip. Elev Updated Type